sensor_id;sensor_type;location;lat;lon;timestamp;P1;durP1;ratioP1;P2;durP2;ratioP2
38318;SDS011;24121;53.536;10.224;2023-02-28T09:29:11;5.45;;;2.67;;
38318;SDS011;24121;53.536;10.224;2023-02-28T09:31:36;4.32;;;2.67;;
38318;SDS011;24121;53.536;10.224;2023-02-28T09:34:03;4.75;;;2.22;;
38318;SDS011;24121;53.536;10.224;2023-02-28T09:36:28;6.32;;;2.25;;
38318;SDS011;24121;53.536;10.224;2023-02-28T09:38:54;5.45;;;1.63;;
38318;SDS011;24121;53.536;10.224;2023-02-28T09:41:21;5.33;;;1.70;;
38318;SDS011;24121;53.536;10.224;2023-02-28T09:43:47;2.95;;;1.58;;
38318;SDS011;24121;53.536;10.224;2023-02-28T09:46:18;2.35;;;1.17;;
38318;SDS011;24121;53.536;10.224;2023-02-28T09:48:46;2.55;;;1.02;;
38318;SDS011;24121;53.536;10.224;2023-02-28T09:51:23;1.55;;;0.77;;
38318;SDS011;24121;53.536;10.224;2023-02-28T09:53:51;3.10;;;1.23;;
38318;SDS011;24121;53.536;10.224;2023-02-28T09:56:25;1.73;;;0.82;;
38318;SDS011;24121;53.536;10.224;2023-02-28T10:01:19;2.67;;;1.10;;
38318;SDS011;24121;53.536;10.224;2023-02-28T10:06:13;4.05;;;1.35;;
38318;SDS011;24121;53.536;10.224;2023-02-28T10:08:48;1.30;;;0.85;;
38318;SDS011;24121;53.536;10.224;2023-02-28T10:11:17;4.38;;;0.85;;
38318;SDS011;24121;53.536;10.224;2023-02-28T10:16:13;0.85;;;0.35;;
38318;SDS011;24121;53.536;10.224;2023-02-28T10:18:48;3.95;;;0.70;;
38318;SDS011;24121;53.536;10.224;2023-02-28T10:21:19;1.35;;;0.50;;
38318;SDS011;24121;53.536;10.224;2023-02-28T10:23:44;4.72;;;0.73;;
38318;SDS011;24121;53.536;10.224;2023-02-28T10:26:13;2.55;;;1.00;;
38318;SDS011;24121;53.536;10.224;2023-02-28T10:28:38;1.67;;;0.85;;
38318;SDS011;24121;53.536;10.224;2023-02-28T10:31:04;2.70;;;0.85;;
38318;SDS011;24121;53.536;10.224;2023-02-28T10:33:33;1.20;;;0.88;;
38318;SDS011;24121;53.536;10.224;2023-02-28T10:36:03;3.53;;;0.75;;
38318;SDS011;24121;53.536;10.224;2023-02-28T10:38:33;1.10;;;0.70;;
38318;SDS011;24121;53.536;10.224;2023-02-28T10:41:09;0.98;;;0.82;;
38318;SDS011;24121;53.536;10.224;2023-02-28T10:43:35;1.85;;;0.68;;
38318;SDS011;24121;53.536;10.224;2023-02-28T10:48:29;2.42;;;1.10;;
38318;SDS011;24121;53.536;10.224;2023-02-28T10:50:55;2.10;;;1.20;;
38318;SDS011;24121;53.536;10.224;2023-02-28T10:58:23;2.38;;;1.15;;
38318;SDS011;24121;53.536;10.224;2023-02-28T11:00:48;2.25;;;1.35;;
38318;SDS011;24121;53.536;10.224;2023-02-28T11:03:33;2.22;;;1.20;;
38318;SDS011;24121;53.536;10.224;2023-02-28T11:06:03;2.08;;;1.20;;
38318;SDS011;24121;53.536;10.224;2023-02-28T11:08:29;3.42;;;1.40;;
38318;SDS011;24121;53.536;10.224;2023-02-28T11:10:55;2.97;;;1.20;;
38318;SDS011;24121;53.536;10.224;2023-02-28T11:13:21;3.83;;;1.40;;
38318;SDS011;24121;53.536;10.224;2023-02-28T11:15:56;3.00;;;1.27;;
38318;SDS011;24121;53.536;10.224;2023-02-28T11:21:02;5.63;;;0.90;;
38318;SDS011;24121;53.536;10.224;2023-02-28T11:23:28;3.03;;;0.98;;
38318;SDS011;24121;53.536;10.224;2023-02-28T11:25:56;3.67;;;1.05;;
38318;SDS011;24121;53.536;10.224;2023-02-28T11:28:28;1.95;;;1.10;;
38318;SDS011;24121;53.536;10.224;2023-02-28T11:31:14;2.72;;;1.20;;
38318;SDS011;24121;53.536;10.224;2023-02-28T11:33:44;2.92;;;0.95;;
38318;SDS011;24121;53.536;10.224;2023-02-28T11:36:20;1.42;;;1.05;;
38318;SDS011;24121;53.536;10.224;2023-02-28T11:38:46;1.92;;;1.00;;
38318;SDS011;24121;53.536;10.224;2023-02-28T11:46:30;2.22;;;1.08;;
38318;SDS011;24121;53.536;10.224;2023-02-28T11:49:15;2.58;;;1.15;;
38318;SDS011;24121;53.536;10.224;2023-02-28T11:52:06;1.98;;;1.00;;
38318;SDS011;24121;53.536;10.224;2023-02-28T11:57:14;2.33;;;0.88;;
38318;SDS011;24121;53.536;10.224;2023-02-28T12:10:20;3.28;;;1.20;;
38318;SDS011;24121;53.536;10.224;2023-02-28T12:15:27;2.03;;;1.33;;
38318;SDS011;24121;53.536;10.224;2023-02-28T12:27:56;4.20;;;2.43;;
38318;SDS011;24121;53.536;10.224;2023-02-28T12:30:22;3.87;;;1.50;;
38318;SDS011;24121;53.536;10.224;2023-02-28T12:32:56;4.28;;;1.52;;
38318;SDS011;24121;53.536;10.224;2023-02-28T12:35:37;3.88;;;1.60;;
38318;SDS011;24121;53.536;10.224;2023-02-28T12:38:05;1.55;;;0.93;;
38318;SDS011;24121;53.536;10.224;2023-02-28T12:40:51;4.10;;;1.40;;
38318;SDS011;24121;53.536;10.224;2023-02-28T12:43:19;2.92;;;1.30;;
38318;SDS011;24121;53.536;10.224;2023-02-28T12:45:53;1.75;;;1.23;;
38318;SDS011;24121;53.536;10.224;2023-02-28T12:48:21;1.58;;;0.90;;
38318;SDS011;24121;53.536;10.224;2023-02-28T12:50:49;2.80;;;1.10;;
38318;SDS011;24121;53.536;10.224;2023-02-28T12:55:46;2.00;;;1.10;;
38318;SDS011;24121;53.536;10.224;2023-02-28T12:58:17;1.73;;;1.00;;
38318;SDS011;24121;53.536;10.224;2023-02-28T13:11:06;1.23;;;1.03;;
38318;SDS011;24121;53.536;10.224;2023-02-28T13:13:31;3.78;;;1.25;;
38318;SDS011;24121;53.536;10.224;2023-02-28T13:21:07;1.20;;;0.90;;
38318;SDS011;24121;53.536;10.224;2023-02-28T13:26:01;2.33;;;1.10;;
38318;SDS011;24121;53.536;10.224;2023-02-28T13:31:11;2.13;;;1.10;;
38318;SDS011;24121;53.536;10.224;2023-02-28T13:46:34;1.10;;;1.00;;
38318;SDS011;24121;53.536;10.224;2023-02-28T13:51:45;2.05;;;1.08;;
38318;SDS011;24121;53.536;10.224;2023-02-28T13:57:00;2.15;;;1.30;;
38318;SDS011;24121;53.536;10.224;2023-02-28T14:04:54;2.92;;;1.40;;
38318;SDS011;24121;53.536;10.224;2023-02-28T14:07:26;4.40;;;1.10;;
38318;SDS011;24121;53.536;10.224;2023-02-28T14:09:55;3.83;;;1.80;;
38318;SDS011;24121;53.536;10.224;2023-02-28T14:15:25;2.30;;;1.27;;
38318;SDS011;24121;53.536;10.224;2023-02-28T14:17:53;1.80;;;1.10;;
38318;SDS011;24121;53.536;10.224;2023-02-28T14:20:20;1.93;;;1.20;;
38318;SDS011;24121;53.536;10.224;2023-02-28T14:25:34;1.70;;;1.40;;
38318;SDS011;24121;53.536;10.224;2023-02-28T14:28:11;3.03;;;1.40;;
38318;SDS011;24121;53.536;10.224;2023-02-28T14:35:53;3.05;;;1.40;;
38318;SDS011;24121;53.536;10.224;2023-02-28T14:38:27;2.65;;;1.40;;
38318;SDS011;24121;53.536;10.224;2023-02-28T14:40:54;1.65;;;1.15;;
38318;SDS011;24121;53.536;10.224;2023-02-28T14:43:24;2.50;;;1.08;;
38318;SDS011;24121;53.536;10.224;2023-02-28T14:45:50;1.40;;;1.00;;
38318;SDS011;24121;53.536;10.224;2023-02-28T14:48:16;1.65;;;1.25;;
38318;SDS011;24121;53.536;10.224;2023-02-28T14:50:42;3.95;;;1.17;;
38318;SDS011;24121;53.536;10.224;2023-02-28T14:53:15;1.50;;;1.20;;
38318;SDS011;24121;53.536;10.224;2023-02-28T14:55:44;2.20;;;1.27;;
38318;SDS011;24121;53.536;10.224;2023-02-28T14:58:20;1.55;;;1.10;;
38318;SDS011;24121;53.536;10.224;2023-02-28T15:00:47;2.70;;;1.33;;
38318;SDS011;24121;53.536;10.224;2023-02-28T15:03:30;1.70;;;1.15;;
38318;SDS011;24121;53.536;10.224;2023-02-28T15:05:59;3.20;;;1.15;;
38318;SDS011;24121;53.536;10.224;2023-02-28T15:08:25;1.33;;;1.00;;
38318;SDS011;24121;53.536;10.224;2023-02-28T15:13:19;2.03;;;0.98;;
38318;SDS011;24121;53.536;10.224;2023-02-28T15:15:45;1.23;;;0.80;;
38318;SDS011;24121;53.536;10.224;2023-02-28T15:18:17;2.13;;;0.98;;
38318;SDS011;24121;53.536;10.224;2023-02-28T15:20:46;3.40;;;1.08;;
38318;SDS011;24121;53.536;10.224;2023-02-28T15:23:11;2.15;;;1.00;;
38318;SDS011;24121;53.536;10.224;2023-02-28T15:25:37;1.65;;;0.95;;
38318;SDS011;24121;53.536;10.224;2023-02-28T15:28:02;1.90;;;1.17;;
38318;SDS011;24121;53.536;10.224;2023-02-28T15:30:28;1.80;;;0.90;;
38318;SDS011;24121;53.536;10.224;2023-02-28T15:33:04;2.00;;;0.80;;
38318;SDS011;24121;53.536;10.224;2023-02-28T15:35:30;1.20;;;0.90;;
38318;SDS011;24121;53.536;10.224;2023-02-28T15:40:46;2.40;;;1.25;;
38318;SDS011;24121;53.536;10.224;2023-02-28T15:43:22;3.58;;;1.02;;
38318;SDS011;24121;53.536;10.224;2023-02-28T15:45:52;2.30;;;1.10;;
38318;SDS011;24121;53.536;10.224;2023-02-28T15:50:47;2.20;;;1.00;;
38318;SDS011;24121;53.536;10.224;2023-02-28T15:53:17;1.60;;;0.95;;
38318;SDS011;24121;53.536;10.224;2023-02-28T15:55:43;2.15;;;1.00;;
38318;SDS011;24121;53.536;10.224;2023-02-28T15:58:09;2.72;;;0.82;;
38318;SDS011;24121;53.536;10.224;2023-02-28T16:00:37;2.45;;;1.00;;
38318;SDS011;24121;53.536;10.224;2023-02-28T16:03:22;2.83;;;1.20;;
38318;SDS011;24121;53.536;10.224;2023-02-28T16:05:50;2.60;;;1.08;;
38318;SDS011;24121;53.536;10.224;2023-02-28T16:08:30;1.98;;;1.00;;
38318;SDS011;24121;53.536;10.224;2023-02-28T16:10:55;2.03;;;1.00;;
38318;SDS011;24121;53.536;10.224;2023-02-28T16:13:21;3.73;;;1.30;;
38318;SDS011;24121;53.536;10.224;2023-02-28T16:15:46;3.47;;;1.10;;
38318;SDS011;24121;53.536;10.224;2023-02-28T16:18:12;2.20;;;1.30;;
38318;SDS011;24121;53.536;10.224;2023-02-28T16:20:37;1.73;;;1.10;;
38318;SDS011;24121;53.536;10.224;2023-02-28T16:23:03;3.10;;;1.33;;
38318;SDS011;24121;53.536;10.224;2023-02-28T16:25:32;3.42;;;1.50;;
38318;SDS011;24121;53.536;10.224;2023-02-28T16:27:58;3.72;;;1.70;;
38318;SDS011;24121;53.536;10.224;2023-02-28T16:30:25;2.47;;;1.30;;
38318;SDS011;24121;53.536;10.224;2023-02-28T16:32:51;6.60;;;1.95;;
38318;SDS011;24121;53.536;10.224;2023-02-28T16:35:17;2.63;;;1.30;;
38318;SDS011;24121;53.536;10.224;2023-02-28T16:37:43;2.03;;;1.30;;
38318;SDS011;24121;53.536;10.224;2023-02-28T16:40:13;2.15;;;1.30;;
38318;SDS011;24121;53.536;10.224;2023-02-28T16:42:39;4.20;;;1.83;;
38318;SDS011;24121;53.536;10.224;2023-02-28T16:45:05;2.83;;;1.58;;
38318;SDS011;24121;53.536;10.224;2023-02-28T16:47:30;2.28;;;1.35;;
38318;SDS011;24121;53.536;10.224;2023-02-28T16:49:57;4.28;;;1.38;;
38318;SDS011;24121;53.536;10.224;2023-02-28T16:52:22;3.27;;;1.50;;
38318;SDS011;24121;53.536;10.224;2023-02-28T16:54:47;2.73;;;1.90;;
38318;SDS011;24121;53.536;10.224;2023-02-28T16:57:16;3.63;;;1.70;;
38318;SDS011;24121;53.536;10.224;2023-02-28T16:59:42;3.37;;;1.50;;
38318;SDS011;24121;53.536;10.224;2023-02-28T17:02:10;4.28;;;1.67;;
38318;SDS011;24121;53.536;10.224;2023-02-28T17:04:36;2.25;;;1.90;;
38318;SDS011;24121;53.536;10.224;2023-02-28T17:07:01;5.20;;;2.25;;
38318;SDS011;24121;53.536;10.224;2023-02-28T17:09:26;9.43;;;1.93;;
38318;SDS011;24121;53.536;10.224;2023-02-28T17:11:51;3.58;;;1.75;;
38318;SDS011;24121;53.536;10.224;2023-02-28T17:14:17;3.97;;;1.77;;
38318;SDS011;24121;53.536;10.224;2023-02-28T17:16:43;4.13;;;2.07;;
38318;SDS011;24121;53.536;10.224;2023-02-28T17:19:12;5.93;;;2.10;;
38318;SDS011;24121;53.536;10.224;2023-02-28T17:21:37;3.57;;;2.07;;
38318;SDS011;24121;53.536;10.224;2023-02-28T17:24:02;5.57;;;2.20;;
38318;SDS011;24121;53.536;10.224;2023-02-28T17:26:28;6.57;;;2.80;;
38318;SDS011;24121;53.536;10.224;2023-02-28T17:28:54;5.45;;;2.95;;
38318;SDS011;24121;53.536;10.224;2023-02-28T17:31:22;7.35;;;3.60;;
38318;SDS011;24121;53.536;10.224;2023-02-28T17:33:48;10.02;;;4.50;;
38318;SDS011;24121;53.536;10.224;2023-02-28T17:36:17;7.57;;;3.60;;
38318;SDS011;24121;53.536;10.224;2023-02-28T17:38:43;8.25;;;3.85;;
38318;SDS011;24121;53.536;10.224;2023-02-28T17:41:12;8.20;;;3.97;;
38318;SDS011;24121;53.536;10.224;2023-02-28T17:43:37;7.50;;;3.25;;
38318;SDS011;24121;53.536;10.224;2023-02-28T17:46:03;6.40;;;3.20;;
38318;SDS011;24121;53.536;10.224;2023-02-28T17:48:30;5.72;;;2.58;;
38318;SDS011;24121;53.536;10.224;2023-02-28T17:50:55;8.35;;;2.85;;
38318;SDS011;24121;53.536;10.224;2023-02-28T17:53:20;4.47;;;2.80;;
38318;SDS011;24121;53.536;10.224;2023-02-28T17:55:47;6.18;;;2.63;;
38318;SDS011;24121;53.536;10.224;2023-02-28T17:58:13;4.25;;;2.67;;
38318;SDS011;24121;53.536;10.224;2023-02-28T18:00:38;5.72;;;2.92;;
38318;SDS011;24121;53.536;10.224;2023-02-28T18:03:03;6.60;;;2.70;;
38318;SDS011;24121;53.536;10.224;2023-02-28T18:05:28;5.45;;;2.80;;
38318;SDS011;24121;53.536;10.224;2023-02-28T18:07:54;6.47;;;3.22;;
38318;SDS011;24121;53.536;10.224;2023-02-28T18:10:20;5.18;;;2.85;;
38318;SDS011;24121;53.536;10.224;2023-02-28T18:12:47;7.45;;;2.40;;
38318;SDS011;24121;53.536;10.224;2023-02-28T18:15:12;4.25;;;2.67;;
38318;SDS011;24121;53.536;10.224;2023-02-28T18:17:37;8.23;;;3.80;;
38318;SDS011;24121;53.536;10.224;2023-02-28T18:20:03;8.65;;;3.35;;
38318;SDS011;24121;53.536;10.224;2023-02-28T18:22:29;7.75;;;3.60;;
38318;SDS011;24121;53.536;10.224;2023-02-28T18:24:54;6.78;;;3.20;;
38318;SDS011;24121;53.536;10.224;2023-02-28T18:27:19;7.47;;;3.77;;
38318;SDS011;24121;53.536;10.224;2023-02-28T18:29:44;9.10;;;4.22;;
38318;SDS011;24121;53.536;10.224;2023-02-28T18:32:10;9.68;;;4.50;;
38318;SDS011;24121;53.536;10.224;2023-02-28T18:34:35;9.73;;;5.05;;
38318;SDS011;24121;53.536;10.224;2023-02-28T18:37:00;8.25;;;4.35;;
38318;SDS011;24121;53.536;10.224;2023-02-28T18:39:25;11.33;;;6.07;;
38318;SDS011;24121;53.536;10.224;2023-02-28T18:41:50;11.53;;;5.60;;
38318;SDS011;24121;53.536;10.224;2023-02-28T18:44:16;12.07;;;4.87;;
38318;SDS011;24121;53.536;10.224;2023-02-28T18:46:41;13.23;;;5.80;;
38318;SDS011;24121;53.536;10.224;2023-02-28T18:49:06;10.50;;;5.32;;
38318;SDS011;24121;53.536;10.224;2023-02-28T18:51:31;10.60;;;5.28;;
38318;SDS011;24121;53.536;10.224;2023-02-28T18:53:57;11.40;;;6.15;;
38318;SDS011;24121;53.536;10.224;2023-02-28T18:56:23;10.30;;;5.20;;
38318;SDS011;24121;53.536;10.224;2023-02-28T18:58:49;11.85;;;5.00;;
38318;SDS011;24121;53.536;10.224;2023-02-28T19:01:16;12.02;;;5.05;;
38318;SDS011;24121;53.536;10.224;2023-02-28T19:03:41;10.98;;;5.32;;
38318;SDS011;24121;53.536;10.224;2023-02-28T19:06:07;17.00;;;8.38;;
38318;SDS011;24121;53.536;10.224;2023-02-28T19:08:32;18.55;;;9.23;;
38318;SDS011;24121;53.536;10.224;2023-02-28T19:10:57;17.30;;;7.03;;
38318;SDS011;24121;53.536;10.224;2023-02-28T19:13:22;15.60;;;6.10;;
38318;SDS011;24121;53.536;10.224;2023-02-28T19:15:48;11.93;;;5.93;;
38318;SDS011;24121;53.536;10.224;2023-02-28T19:18:13;11.95;;;6.65;;
38318;SDS011;24121;53.536;10.224;2023-02-28T19:20:38;18.30;;;8.68;;
38318;SDS011;24121;53.536;10.224;2023-02-28T19:23:03;17.23;;;8.95;;
38318;SDS011;24121;53.536;10.224;2023-02-28T19:25:29;19.30;;;8.10;;
38318;SDS011;24121;53.536;10.224;2023-02-28T19:27:54;13.38;;;6.88;;
38318;SDS011;24121;53.536;10.224;2023-02-28T19:30:20;12.85;;;7.03;;
38318;SDS011;24121;53.536;10.224;2023-02-28T19:32:46;13.30;;;6.93;;
38318;SDS011;24121;53.536;10.224;2023-02-28T19:35:11;11.60;;;6.00;;
38318;SDS011;24121;53.536;10.224;2023-02-28T19:37:37;8.27;;;4.90;;
38318;SDS011;24121;53.536;10.224;2023-02-28T19:40:02;9.32;;;5.05;;
38318;SDS011;24121;53.536;10.224;2023-02-28T19:42:27;8.40;;;4.72;;
38318;SDS011;24121;53.536;10.224;2023-02-28T19:44:57;6.05;;;3.38;;
38318;SDS011;24121;53.536;10.224;2023-02-28T19:47:22;5.72;;;3.10;;
38318;SDS011;24121;53.536;10.224;2023-02-28T19:49:47;7.15;;;3.17;;
38318;SDS011;24121;53.536;10.224;2023-02-28T19:52:12;7.32;;;3.15;;
38318;SDS011;24121;53.536;10.224;2023-02-28T19:54:37;7.85;;;3.50;;
38318;SDS011;24121;53.536;10.224;2023-02-28T19:57:02;6.28;;;2.97;;
38318;SDS011;24121;53.536;10.224;2023-02-28T19:59:28;6.82;;;2.35;;
38318;SDS011;24121;53.536;10.224;2023-02-28T20:01:53;4.10;;;2.50;;
38318;SDS011;24121;53.536;10.224;2023-02-28T20:04:21;4.85;;;2.67;;
38318;SDS011;24121;53.536;10.224;2023-02-28T20:06:47;3.00;;;2.40;;
38318;SDS011;24121;53.536;10.224;2023-02-28T20:09:12;4.03;;;2.80;;
38318;SDS011;24121;53.536;10.224;2023-02-28T20:11:37;8.60;;;2.92;;
38318;SDS011;24121;53.536;10.224;2023-02-28T20:14:03;4.88;;;2.88;;
38318;SDS011;24121;53.536;10.224;2023-02-28T20:16:29;5.32;;;2.75;;
38318;SDS011;24121;53.536;10.224;2023-02-28T20:18:55;8.60;;;3.20;;
38318;SDS011;24121;53.536;10.224;2023-02-28T20:21:20;5.65;;;2.88;;
38318;SDS011;24121;53.536;10.224;2023-02-28T20:23:45;6.95;;;3.47;;
38318;SDS011;24121;53.536;10.224;2023-02-28T20:26:13;9.05;;;3.28;;
38318;SDS011;24121;53.536;10.224;2023-02-28T20:28:38;5.65;;;3.55;;
38318;SDS011;24121;53.536;10.224;2023-02-28T20:31:13;6.95;;;3.85;;
38318;SDS011;24121;53.536;10.224;2023-02-28T20:33:39;7.35;;;4.00;;
38318;SDS011;24121;53.536;10.224;2023-02-28T20:36:04;8.02;;;4.25;;
38318;SDS011;24121;53.536;10.224;2023-02-28T20:38:29;8.40;;;4.70;;
38318;SDS011;24121;53.536;10.224;2023-02-28T20:40:55;6.72;;;4.10;;
38318;SDS011;24121;53.536;10.224;2023-02-28T20:43:20;9.35;;;6.20;;
38318;SDS011;24121;53.536;10.224;2023-02-28T20:45:50;7.32;;;4.72;;
38318;SDS011;24121;53.536;10.224;2023-02-28T20:48:16;8.27;;;5.10;;
38318;SDS011;24121;53.536;10.224;2023-02-28T20:50:46;13.87;;;5.90;;
38318;SDS011;24121;53.536;10.224;2023-02-28T20:53:11;8.75;;;5.30;;
38318;SDS011;24121;53.536;10.224;2023-02-28T20:55:36;8.95;;;6.40;;
38318;SDS011;24121;53.536;10.224;2023-02-28T20:58:02;8.15;;;5.63;;
38318;SDS011;24121;53.536;10.224;2023-02-28T21:00:27;8.37;;;5.50;;
38318;SDS011;24121;53.536;10.224;2023-02-28T21:02:52;9.30;;;5.23;;
38318;SDS011;24121;53.536;10.224;2023-02-28T21:05:17;8.57;;;5.37;;
38318;SDS011;24121;53.536;10.224;2023-02-28T21:07:42;9.27;;;5.70;;
38318;SDS011;24121;53.536;10.224;2023-02-28T21:10:07;10.10;;;5.50;;
38318;SDS011;24121;53.536;10.224;2023-02-28T21:12:33;12.07;;;7.10;;
38318;SDS011;24121;53.536;10.224;2023-02-28T21:14:59;15.55;;;8.05;;
38318;SDS011;24121;53.536;10.224;2023-02-28T21:17:24;15.30;;;8.45;;
38318;SDS011;24121;53.536;10.224;2023-02-28T21:19:49;14.73;;;7.03;;
38318;SDS011;24121;53.536;10.224;2023-02-28T21:22:14;17.13;;;8.47;;
38318;SDS011;24121;53.536;10.224;2023-02-28T21:24:39;12.02;;;7.18;;
38318;SDS011;24121;53.536;10.224;2023-02-28T21:27:05;12.88;;;7.45;;
38318;SDS011;24121;53.536;10.224;2023-02-28T21:29:30;12.20;;;7.33;;
38318;SDS011;24121;53.536;10.224;2023-02-28T21:31:55;10.23;;;7.07;;
38318;SDS011;24121;53.536;10.224;2023-02-28T21:34:20;11.50;;;6.67;;
38318;SDS011;24121;53.536;10.224;2023-02-28T21:36:45;15.90;;;8.70;;
38318;SDS011;24121;53.536;10.224;2023-02-28T21:39:21;14.80;;;8.35;;
38318;SDS011;24121;53.536;10.224;2023-02-28T21:41:47;13.77;;;8.30;;
38318;SDS011;24121;53.536;10.224;2023-02-28T21:44:12;11.40;;;7.65;;
38318;SDS011;24121;53.536;10.224;2023-02-28T21:46:45;9.38;;;5.95;;
38318;SDS011;24121;53.536;10.224;2023-02-28T21:49:11;10.10;;;6.40;;
38318;SDS011;24121;53.536;10.224;2023-02-28T21:51:36;7.32;;;5.28;;
38318;SDS011;24121;53.536;10.224;2023-02-28T21:54:02;10.23;;;5.18;;
38318;SDS011;24121;53.536;10.224;2023-02-28T21:56:29;9.60;;;4.45;;
38318;SDS011;24121;53.536;10.224;2023-02-28T21:58:55;7.70;;;4.55;;
38318;SDS011;24121;53.536;10.224;2023-02-28T22:01:32;5.45;;;3.78;;
38318;SDS011;24121;53.536;10.224;2023-02-28T22:04:02;5.18;;;3.53;;
38318;SDS011;24121;53.536;10.224;2023-02-28T22:06:29;6.10;;;3.72;;
38318;SDS011;24121;53.536;10.224;2023-02-28T22:08:55;5.93;;;4.00;;
38318;SDS011;24121;53.536;10.224;2023-02-28T22:11:21;5.53;;;3.22;;
38318;SDS011;24121;53.536;10.224;2023-02-28T22:13:46;4.35;;;3.33;;
38318;SDS011;24121;53.536;10.224;2023-02-28T22:16:16;9.68;;;3.85;;
38318;SDS011;24121;53.536;10.224;2023-02-28T22:18:41;8.30;;;3.60;;
